No particular awareness of the weather is required.    There are no Weather-warnings


Meteo18 Weather Cam more information Meteo18 Weather Cam


Thunder radar more information blitzortung!


Rain radar more information rain snow radar


Visit our other weather sites:

Template documentation
and downloads

And another site



Weather Underground History page Text

Daily Summary for April 21, 2017 Units:  Both    English   Metric
« Previous Day
Next Day »
Daily Weekly Monthly Yearly Custom
  High: Low: Average:
Temperature: TemperatureC °F /  -17.8 °C 2.0 °F /  -16.7 °C 9.6 °F /  -12.4 °C
Dew Point: DewpointC °F /  -17.8 °C -3.4 °F /  -19.7 °C -1.7 °F /  -18.7 °C
Humidity: Humidity % 28 % 47 %
Wind Speed: WindSpeedKMH mph /  0 km/h - 5.3 mph /  8.5 km/h
Wind Gust: WindSpeedGustKMH mph /  0 km/h - -
Wind:- - SE
Pressure: PressurehPa in /  0 hPa 1029.0 in /  34841.9 hPa -
Precipitation: 0.0 in /  0 mm    
Historical Graphs
 
 
Tabular Data for April 21, 2017
Time Temperature Dew Point Pressure Wind Wind Speed Wind Gust Humidity Rainfall Rate (Hourly)
TemperatureC °F /  -17.8 °C DewpointC °F /  -17.8 °C PressurehPa in /  0 hPa Calm     Humidity % HourlyPrecipMM in /  0 mm
00:02 6.7 °F /  -14.1 °C -2.2 °F /  -19 °C 1032.7 in /  34967.2 hPa NNE 16.1 mph /  25.9 km/h 20.9 mph /  33.6 km/h 53 % 0.0 in /  0 mm
00:12 6.6 °F /  -14.1 °C -2.0 °F /  -18.9 °C 1032.7 in /  34967.2 hPa North 8.0 mph /  12.9 km/h 20.9 mph /  33.6 km/h 54 % 0.0 in /  0 mm
00:17 6.5 °F /  -14.2 °C -2.1 °F /  -18.9 °C 1032.7 in /  34967.2 hPa NE 1.6 mph /  2.6 km/h 20.9 mph /  33.6 km/h 54 % 0.0 in /  0 mm
00:22 6.2 °F /  -14.3 °C -2.2 °F /  -19 °C 1033.1 in /  34980.8 hPa NNE 3.2 mph /  5.1 km/h 20.9 mph /  33.6 km/h 55 % 0.0 in /  0 mm
00:27 6.0 °F /  -14.4 °C -2.1 °F /  -18.9 °C 1033.1 in /  34980.8 hPa NW 3.2 mph /  5.1 km/h 20.9 mph /  33.6 km/h 56 % 0.0 in /  0 mm
00:32 5.8 °F /  -14.6 °C -2.1 °F /  -18.9 °C 1033.1 in /  34980.8 hPa NNW 4.8 mph /  7.7 km/h 19.3 mph /  31.1 km/h 57 % 0.0 in /  0 mm
00:37 5.7 °F /  -14.6 °C -2.2 °F /  -19 °C 1033.1 in /  34980.8 hPa NNE 3.2 mph /  5.1 km/h 19.3 mph /  31.1 km/h 57 % 0.0 in /  0 mm
00:42 5.5 °F /  -14.7 °C -2.1 °F /  -18.9 °C 1033.1 in /  34980.8 hPa North 3.2 mph /  5.1 km/h 12.9 mph /  20.8 km/h 58 % 0.0 in /  0 mm
00:52 5.3 °F /  -14.8 °C -2.3 °F /  -19.1 °C 1033.1 in /  34980.8 hPa NE 6.4 mph /  10.3 km/h 16.1 mph /  25.9 km/h 58 % 0.0 in /  0 mm
00:57 5.2 °F /  -14.9 °C -2.2 °F /  -19 °C 1033.1 in /  34980.8 hPa NNE 3.2 mph /  5.1 km/h 16.1 mph /  25.9 km/h 59 % 0.0 in /  0 mm
01:02 5.1 °F /  -14.9 °C -2.3 °F /  -19.1 °C 1033.1 in /  34980.8 hPa North 6.4 mph /  10.3 km/h 16.1 mph /  25.9 km/h 59 % 0.0 in /  0 mm
01:07 5.0 °F /  -15 °C -2.3 °F /  -19.1 °C 1033.1 in /  34980.8 hPa North 3.2 mph /  5.1 km/h 11.3 mph /  18.2 km/h 59 % 0.0 in /  0 mm
01:12 4.8 °F /  -15.1 °C -2.3 °F /  -19.1 °C 1033.1 in /  34980.8 hPa Calm   11.3 mph /  18.2 km/h 60 % 0.0 in /  0 mm
01:17 4.7 °F /  -15.2 °C -2.2 °F /  -19 °C 1033.1 in /  34980.8 hPa North 3.2 mph /  5.1 km/h 12.9 mph /  20.8 km/h 61 % 0.0 in /  0 mm
01:22 4.7 °F /  -15.2 °C -2.2 °F /  -19 °C 1033.1 in /  34980.8 hPa NE 3.2 mph /  5.1 km/h 12.9 mph /  20.8 km/h 61 % 0.0 in /  0 mm
01:27 4.6 °F /  -15.2 °C -2.3 °F /  -19.1 °C 1033.1 in /  34980.8 hPa NW 1.6 mph /  2.6 km/h 9.7 mph /  15.6 km/h 61 % 0.0 in /  0 mm
01:32 4.6 °F /  -15.2 °C -2.3 °F /  -19.1 °C 1033.1 in /  34980.8 hPa NW 1.6 mph /  2.6 km/h 9.7 mph /  15.6 km/h 61 % 0.0 in /  0 mm
01:37 4.6 °F /  -15.2 °C -2.3 °F /  -19.1 °C 1033.1 in /  34980.8 hPa NNW 4.8 mph /  7.7 km/h 9.7 mph /  15.6 km/h 61 % 0.0 in /  0 mm
01:42 4.4 °F /  -15.3 °C -2.2 °F /  -19 °C 1033.1 in /  34980.8 hPa NNW 1.6 mph /  2.6 km/h 9.7 mph /  15.6 km/h 62 % 0.0 in /  0 mm
01:47 4.4 °F /  -15.3 °C -2.5 °F /  -19.2 °C 1033.1 in /  34980.8 hPa North 8.0 mph /  12.9 km/h 9.7 mph /  15.6 km/h 61 % 0.0 in /  0 mm
01:52 4.5 °F /  -15.3 °C -2.4 °F /  -19.1 °C 1033.1 in /  34980.8 hPa North 4.8 mph /  7.7 km/h 9.7 mph /  15.6 km/h 61 % 0.0 in /  0 mm
01:57 4.4 °F /  -15.3 °C -2.2 °F /  -19 °C 1033.1 in /  34980.8 hPa North 3.2 mph /  5.1 km/h 9.7 mph /  15.6 km/h 62 % 0.0 in /  0 mm
02:02 4.3 °F /  -15.4 °C -2.3 °F /  -19.1 °C 1033.1 in /  34980.8 hPa NNW 3.2 mph /  5.1 km/h 9.7 mph /  15.6 km/h 62 % 0.0 in /  0 mm
02:07 4.3 °F /  -15.4 °C -2.3 °F /  -19.1 °C 1033.1 in /  34980.8 hPa North 3.2 mph /  5.1 km/h 9.7 mph /  15.6 km/h 62 % 0.0 in /  0 mm
02:12 4.2 °F /  -15.4 °C -2.4 °F /  -19.1 °C 1033.1 in /  34980.8 hPa NNE 3.2 mph /  5.1 km/h 6.4 mph /  10.3 km/h 62 % 0.0 in /  0 mm
02:17 4.2 °F /  -15.4 °C -2.4 °F /  -19.1 °C 1032.7 in /  34967.2 hPa NNE 6.4 mph /  10.3 km/h 6.4 mph /  10.3 km/h 62 % 0.0 in /  0 mm
02:22 4.1 °F /  -15.5 °C -2.5 °F /  -19.2 °C 1032.7 in /  34967.2 hPa NE 1.6 mph /  2.6 km/h 6.4 mph /  10.3 km/h 62 % 0.0 in /  0 mm
02:32 4.1 °F /  -15.5 °C -2.3 °F /  -19.1 °C 1032.7 in /  34967.2 hPa NNW 4.8 mph /  7.7 km/h 6.4 mph /  10.3 km/h 63 % 0.0 in /  0 mm
02:37 4.0 °F /  -15.6 °C -2.6 °F /  -19.2 °C 1032.7 in /  34967.2 hPa NNE 3.2 mph /  5.1 km/h 4.8 mph /  7.7 km/h 62 % 0.0 in /  0 mm
02:42 3.8 °F /  -15.7 °C -2.6 °F /  -19.2 °C 1032.7 in /  34967.2 hPa Calm   4.8 mph /  7.7 km/h 63 % 0.0 in /  0 mm
02:47 3.7 °F /  -15.7 °C -2.7 °F /  -19.3 °C 1032.7 in /  34967.2 hPa NE 8.0 mph /  12.9 km/h 8.0 mph /  12.9 km/h 63 % 0.0 in /  0 mm
02:52 3.8 °F /  -15.7 °C -2.6 °F /  -19.2 °C 1032.7 in /  34967.2 hPa NNE 4.8 mph /  7.7 km/h 6.4 mph /  10.3 km/h 63 % 0.0 in /  0 mm
02:57 3.8 °F /  -15.7 °C -2.6 °F /  -19.2 °C 1032.7 in /  34967.2 hPa NW 3.2 mph /  5.1 km/h 8.0 mph /  12.9 km/h 63 % 0.0 in /  0 mm
03:02 3.7 °F /  -15.7 °C -2.5 °F /  -19.2 °C 1032.7 in /  34967.2 hPa NNW 3.2 mph /  5.1 km/h 8.0 mph /  12.9 km/h 64 % 0.0 in /  0 mm
03:12 3.7 °F /  -15.7 °C -2.7 °F /  -19.3 °C 1032.7 in /  34967.2 hPa North 4.8 mph /  7.7 km/h 8.0 mph /  12.9 km/h 63 % 0.0 in /  0 mm
03:17 3.6 °F /  -15.8 °C -2.6 °F /  -19.2 °C 1032.7 in /  34967.2 hPa NNW 6.4 mph /  10.3 km/h 11.3 mph /  18.2 km/h 64 % 0.0 in /  0 mm
03:22 3.4 °F /  -15.9 °C -2.8 °F /  -19.3 °C 1032.7 in /  34967.2 hPa North 8.0 mph /  12.9 km/h 11.3 mph /  18.2 km/h 64 % 0.0 in /  0 mm
03:32 3.6 °F /  -15.8 °C -2.6 °F /  -19.2 °C 1032.7 in /  34967.2 hPa NW 4.8 mph /  7.7 km/h 11.3 mph /  18.2 km/h 64 % 0.0 in /  0 mm
03:37 3.6 °F /  -15.8 °C -2.8 °F /  -19.3 °C 1032.7 in /  34967.2 hPa North 4.8 mph /  7.7 km/h 9.7 mph /  15.6 km/h 63 % 0.0 in /  0 mm
03:42 3.6 °F /  -15.8 °C -2.6 °F /  -19.2 °C 1032.7 in /  34967.2 hPa North 3.2 mph /  5.1 km/h 9.7 mph /  15.6 km/h 64 % 0.0 in /  0 mm
03:47 3.4 °F /  -15.9 °C -2.8 °F /  -19.3 °C 1032.7 in /  34967.2 hPa NW 1.6 mph /  2.6 km/h 11.3 mph /  18.2 km/h 64 % 0.0 in /  0 mm
03:52 3.3 °F /  -15.9 °C -2.9 °F /  -19.4 °C 1032.4 in /  34957.1 hPa Calm   11.3 mph /  18.2 km/h 64 % 0.0 in /  0 mm
03:57 3.2 °F /  -16 °C -3.0 °F /  -19.4 °C 1032.4 in /  34957.1 hPa Calm   8.0 mph /  12.9 km/h 64 % 0.0 in /  0 mm
04:02 3.1 °F /  -16.1 °C -2.8 °F /  -19.3 °C 1032.4 in /  34957.1 hPa North 4.8 mph /  7.7 km/h 8.0 mph /  12.9 km/h 65 % 0.0 in /  0 mm
04:12 2.8 °F /  -16.2 °C -3.1 °F /  -19.5 °C 1032.4 in /  34957.1 hPa Calm   6.4 mph /  10.3 km/h 65 % 0.0 in /  0 mm
04:17 2.7 °F /  -16.3 °C -3.0 °F /  -19.4 °C 1032.4 in /  34957.1 hPa NW 1.6 mph /  2.6 km/h 4.8 mph /  7.7 km/h 66 % 0.0 in /  0 mm
04:27 2.8 °F /  -16.2 °C -2.9 °F /  -19.4 °C 1032.4 in /  34957.1 hPa WNW 3.2 mph /  5.1 km/h 3.2 mph /  5.1 km/h 66 % 0.0 in /  0 mm
04:32 2.6 °F /  -16.3 °C -3.1 °F /  -19.5 °C 1032.4 in /  34957.1 hPa WNW 3.2 mph /  5.1 km/h 3.2 mph /  5.1 km/h 66 % 0.0 in /  0 mm
04:42 2.9 °F /  -16.2 °C -3.0 °F /  -19.4 °C 1032.4 in /  34957.1 hPa NW 1.6 mph /  2.6 km/h 3.2 mph /  5.1 km/h 65 % 0.0 in /  0 mm
04:47 3.1 °F /  -16.1 °C -3.0 °F /  -19.4 °C 1032.4 in /  34957.1 hPa NW 1.6 mph /  2.6 km/h 3.2 mph /  5.1 km/h 64 % 0.0 in /  0 mm
04:52 2.9 °F /  -16.2 °C -3.0 °F /  -19.4 °C 1032.4 in /  34957.1 hPa NW 3.2 mph /  5.1 km/h 3.2 mph /  5.1 km/h 65 % 0.0 in /  0 mm
04:57 3.1 °F /  -16.1 °C -3.0 °F /  -19.4 °C 1032.4 in /  34957.1 hPa WNW 3.2 mph /  5.1 km/h 3.2 mph /  5.1 km/h 64 % 0.0 in /  0 mm
05:02 3.2 °F /  -16 °C -3.2 °F /  -19.6 °C 1032.4 in /  34957.1 hPa NW 3.2 mph /  5.1 km/h 3.2 mph /  5.1 km/h 63 % 0.0 in /  0 mm
05:12 3.2 °F /  -16 °C -3.2 °F /  -19.6 °C 1032.4 in /  34957.1 hPa North 4.8 mph /  7.7 km/h 4.8 mph /  7.7 km/h 63 % 0.0 in /  0 mm
05:17 3.2 °F /  -16 °C -3.2 °F /  -19.6 °C 1032.4 in /  34957.1 hPa NW 1.6 mph /  2.6 km/h 6.4 mph /  10.3 km/h 63 % 0.0 in /  0 mm
05:22 3.1 °F /  -16.1 °C -3.0 °F /  -19.4 °C 1032.4 in /  34957.1 hPa NNW 1.6 mph /  2.6 km/h 6.4 mph /  10.3 km/h 64 % 0.0 in /  0 mm
05:32 2.9 °F /  -16.2 °C -3.2 °F /  -19.6 °C 1032.4 in /  34957.1 hPa North 3.2 mph /  5.1 km/h 6.4 mph /  10.3 km/h 64 % 0.0 in /  0 mm
05:42 2.7 °F /  -16.3 °C -3.2 °F /  -19.6 °C 1032.4 in /  34957.1 hPa Calm   4.8 mph /  7.7 km/h 65 % 0.0 in /  0 mm
05:47 2.6 °F /  -16.3 °C -3.3 °F /  -19.6 °C 1032.4 in /  34957.1 hPa North 3.2 mph /  5.1 km/h 3.2 mph /  5.1 km/h 65 % 0.0 in /  0 mm
05:52 2.6 °F /  -16.3 °C -3.3 °F /  -19.6 °C 1032.4 in /  34957.1 hPa NNE 1.6 mph /  2.6 km/h 3.2 mph /  5.1 km/h 65 % 0.0 in /  0 mm
06:02 2.4 °F /  -16.4 °C -3.3 °F /  -19.6 °C 1032.4 in /  34957.1 hPa Calm   3.2 mph /  5.1 km/h 66 % 0.0 in /  0 mm
06:12 2.5 °F /  -16.4 °C -3.2 °F /  -19.6 °C 1032.4 in /  34957.1 hPa NNW 3.2 mph /  5.1 km/h 6.4 mph /  10.3 km/h 66 % 0.0 in /  0 mm
06:17 2.6 °F /  -16.3 °C -3.3 °F /  -19.6 °C 1032.1 in /  34946.9 hPa NNW 1.6 mph /  2.6 km/h 6.4 mph /  10.3 km/h 65 % 0.0 in /  0 mm
06:22 2.7 °F /  -16.3 °C -3.2 °F /  -19.6 °C 1032.1 in /  34946.9 hPa NNW 3.2 mph /  5.1 km/h 6.4 mph /  10.3 km/h 65 % 0.0 in /  0 mm
06:27 2.7 °F /  -16.3 °C -3.2 °F /  -19.6 °C 1032.1 in /  34946.9 hPa NNW 1.6 mph /  2.6 km/h 4.8 mph /  7.7 km/h 65 % 0.0 in /  0 mm
06:32 2.7 °F /  -16.3 °C -3.2 °F /  -19.6 °C 1032.1 in /  34946.9 hPa NNW 3.2 mph /  5.1 km/h 4.8 mph /  7.7 km/h 65 % 0.0 in /  0 mm
06:37 2.4 °F /  -16.4 °C -3.3 °F /  -19.6 °C 1032.4 in /  34957.1 hPa Calm   4.8 mph /  7.7 km/h 66 % 0.0 in /  0 mm
06:42 2.1 °F /  -16.6 °C -3.4 °F /  -19.7 °C 1032.1 in /  34946.9 hPa Calm   4.8 mph /  7.7 km/h 67 % 0.0 in /  0 mm
06:47 2.0 °F /  -16.7 °C -3.3 °F /  -19.6 °C 1032.4 in /  34957.1 hPa North 3.2 mph /  5.1 km/h 6.4 mph /  10.3 km/h 68 % 0.0 in /  0 mm
06:52 2.1 °F /  -16.6 °C -3.4 °F /  -19.7 °C 1032.1 in /  34946.9 hPa NNW 1.6 mph /  2.6 km/h 6.4 mph /  10.3 km/h 67 % 0.0 in /  0 mm
06:57 2.1 °F /  -16.6 °C -3.4 °F /  -19.7 °C 1032.1 in /  34946.9 hPa NNE 1.6 mph /  2.6 km/h 6.4 mph /  10.3 km/h 67 % 0.0 in /  0 mm
07:02 2.2 °F /  -16.6 °C -3.3 °F /  -19.6 °C 1032.4 in /  34957.1 hPa North 4.8 mph /  7.7 km/h 6.4 mph /  10.3 km/h 67 % 0.0 in /  0 mm
07:12 2.4 °F /  -16.4 °C -3.3 °F /  -19.6 °C 1032.4 in /  34957.1 hPa Calm   4.8 mph /  7.7 km/h 66 % 0.0 in /  0 mm
07:22 2.8 °F /  -16.2 °C -3.1 °F /  -19.5 °C 1032.4 in /  34957.1 hPa NNW 1.6 mph /  2.6 km/h 4.8 mph /  7.7 km/h 65 % 0.0 in /  0 mm
07:32 2.9 °F /  -16.2 °C -3.0 °F /  -19.4 °C 1032.4 in /  34957.1 hPa Calm   4.8 mph /  7.7 km/h 65 % 0.0 in /  0 mm
07:42 3.2 °F /  -16 °C -2.7 °F /  -19.3 °C 1032.4 in /  34957.1 hPa North 1.6 mph /  2.6 km/h 4.8 mph /  7.7 km/h 65 % 0.0 in /  0 mm
07:47 3.2 °F /  -16 °C -2.7 °F /  -19.3 °C 1032.4 in /  34957.1 hPa North 1.6 mph /  2.6 km/h 4.8 mph /  7.7 km/h 65 % 0.0 in /  0 mm
07:52 3.3 °F /  -15.9 °C -2.7 °F /  -19.3 °C 1032.4 in /  34957.1 hPa Calm   4.8 mph /  7.7 km/h 65 % 0.0 in /  0 mm
07:57 3.6 °F /  -15.8 °C -2.4 °F /  -19.1 °C 1032.4 in /  34957.1 hPa Calm   4.8 mph /  7.7 km/h 65 % 0.0 in /  0 mm
08:02 3.9 °F /  -15.6 °C -2.1 °F /  -18.9 °C 1032.4 in /  34957.1 hPa North 1.6 mph /  2.6 km/h 4.8 mph /  7.7 km/h 65 % 0.0 in /  0 mm
08:12 4.4 °F /  -15.3 °C -2.0 °F /  -18.9 °C 1032.7 in /  34967.2 hPa NNE 3.2 mph /  5.1 km/h 4.8 mph /  7.7 km/h 63 % 0.0 in /  0 mm
08:17 4.6 °F /  -15.2 °C -1.8 °F /  -18.8 °C 1032.7 in /  34967.2 hPa NNE 4.8 mph /  7.7 km/h 6.4 mph /  10.3 km/h 63 % 0.0 in /  0 mm
08:22 4.8 °F /  -15.1 °C -1.9 °F /  -18.8 °C 1032.7 in /  34967.2 hPa NNE 4.8 mph /  7.7 km/h 6.4 mph /  10.3 km/h 62 % 0.0 in /  0 mm
08:32 5.2 °F /  -14.9 °C -1.9 °F /  -18.8 °C 1032.7 in /  34967.2 hPa NNE 8.0 mph /  12.9 km/h 8.0 mph /  12.9 km/h 60 % 0.0 in /  0 mm
08:42 5.4 °F /  -14.8 °C -2.2 °F /  -19 °C 1032.7 in /  34967.2 hPa NNE 4.8 mph /  7.7 km/h 9.7 mph /  15.6 km/h 58 % 0.0 in /  0 mm
08:47 5.7 °F /  -14.6 °C -1.9 °F /  -18.8 °C 1032.7 in /  34967.2 hPa NNE 6.4 mph /  10.3 km/h 11.3 mph /  18.2 km/h 58 % 0.0 in /  0 mm
08:52 5.7 °F /  -14.6 °C -2.2 °F /  -19 °C 1032.7 in /  34967.2 hPa NE 6.4 mph /  10.3 km/h 11.3 mph /  18.2 km/h 57 % 0.0 in /  0 mm
08:57 5.8 °F /  -14.6 °C -2.1 °F /  -18.9 °C 1032.7 in /  34967.2 hPa NNE 8.0 mph /  12.9 km/h 12.9 mph /  20.8 km/h 57 % 0.0 in /  0 mm
09:02 6.2 °F /  -14.3 °C -1.2 °F /  -18.4 °C 1033.1 in /  34980.8 hPa NNE 4.8 mph /  7.7 km/h 12.9 mph /  20.8 km/h 59 % 0.0 in /  0 mm
09:12 6.6 °F /  -14.1 °C -1.3 °F /  -18.5 °C 1032.7 in /  34967.2 hPa ENE 9.7 mph /  15.6 km/h 12.9 mph /  20.8 km/h 57 % 0.0 in /  0 mm
09:17 6.8 °F /  -14 °C -1.9 °F /  -18.8 °C 1032.7 in /  34967.2 hPa NE 12.9 mph /  20.8 km/h 12.9 mph /  20.8 km/h 54 % 0.0 in /  0 mm
09:22 6.8 °F /  -14 °C -1.9 °F /  -18.8 °C 1032.7 in /  34967.2 hPa NE 12.9 mph /  20.8 km/h 12.9 mph /  20.8 km/h 54 % 0.0 in /  0 mm
09:27 6.9 °F /  -13.9 °C -1.3 °F /  -18.5 °C 1032.7 in /  34967.2 hPa NNE 11.3 mph /  18.2 km/h 17.7 mph /  28.5 km/h 56 % 0.0 in /  0 mm
09:32 7.2 °F /  -13.8 °C -1.2 °F /  -18.4 °C 1032.7 in /  34967.2 hPa North 6.4 mph /  10.3 km/h 17.7 mph /  28.5 km/h 55 % 0.0 in /  0 mm
09:42 7.5 °F /  -13.6 °C -1.0 °F /  -18.3 °C 1032.7 in /  34967.2 hPa NNE 4.8 mph /  7.7 km/h 16.1 mph /  25.9 km/h 55 % 0.0 in /  0 mm
09:52 7.9 °F /  -13.4 °C -0.8 °F /  -18.2 °C 1032.7 in /  34967.2 hPa NNE 11.3 mph /  18.2 km/h 12.9 mph /  20.8 km/h 54 % 0.0 in /  0 mm
09:57 8.2 °F /  -13.2 °C -0.6 °F /  -18.1 °C 1032.7 in /  34967.2 hPa NE 9.7 mph /  15.6 km/h 14.5 mph /  23.3 km/h 54 % 0.0 in /  0 mm
10:02 8.4 °F /  -13.1 °C -0.6 °F /  -18.1 °C 1033.1 in /  34980.8 hPa North 9.7 mph /  15.6 km/h 14.5 mph /  23.3 km/h 53 % 0.0 in /  0 mm
10:12 8.7 °F /  -12.9 °C -1.1 °F /  -18.4 °C 1033.1 in /  34980.8 hPa NE 12.9 mph /  20.8 km/h 12.9 mph /  20.8 km/h 50 % 0.0 in /  0 mm
10:17 8.9 °F /  -12.8 °C -1.2 °F /  -18.4 °C 1033.1 in /  34980.8 hPa NE 9.7 mph /  15.6 km/h 16.1 mph /  25.9 km/h 49 % 0.0 in /  0 mm
10:22 9.1 °F /  -12.7 °C -1.6 °F /  -18.7 °C 1033.1 in /  34980.8 hPa North 8.0 mph /  12.9 km/h 16.1 mph /  25.9 km/h 47 % 0.0 in /  0 mm
10:32 9.4 °F /  -12.6 °C -0.8 °F /  -18.2 °C 1033.1 in /  34980.8 hPa NNE 6.4 mph /  10.3 km/h 16.1 mph /  25.9 km/h 49 % 0.0 in /  0 mm
10:42 9.9 °F /  -12.3 °C -0.6 °F /  -18.1 °C 1033.1 in /  34980.8 hPa NE 4.8 mph /  7.7 km/h 17.7 mph /  28.5 km/h 48 % 0.0 in /  0 mm
10:52 9.9 °F /  -12.3 °C -0.9 °F /  -18.3 °C 1033.1 in /  34980.8 hPa ENE 11.3 mph /  18.2 km/h 17.7 mph /  28.5 km/h 47 % 0.0 in /  0 mm
11:02 10.3 °F /  -12.1 °C -0.8 °F /  -18.2 °C 1033.1 in /  34980.8 hPa NNE 4.8 mph /  7.7 km/h 19.3 mph /  31.1 km/h 46 % 0.0 in /  0 mm
11:12 10.7 °F /  -11.8 °C -0.8 °F /  -18.2 °C 1033.1 in /  34980.8 hPa NNW 8.0 mph /  12.9 km/h 19.3 mph /  31.1 km/h 45 % 0.0 in /  0 mm
11:17 11.1 °F /  -11.6 °C -0.7 °F /  -18.2 °C 1033.1 in /  34980.8 hPa NE 9.7 mph /  15.6 km/h 19.3 mph /  31.1 km/h 44 % 0.0 in /  0 mm
11:22 11.1 °F /  -11.6 °C -1.3 °F /  -18.5 °C 1033.1 in /  34980.8 hPa NNE 20.9 mph /  33.6 km/h 20.9 mph /  33.6 km/h 42 % 0.0 in /  0 mm
11:32 11.5 °F /  -11.4 °C -1.3 °F /  -18.5 °C 1033.1 in /  34980.8 hPa NE 9.7 mph /  15.6 km/h 24.1 mph /  38.8 km/h 41 % 0.0 in /  0 mm
11:42 11.7 °F /  -11.3 °C -2.2 °F /  -19 °C 1033.1 in /  34980.8 hPa NE 9.7 mph /  15.6 km/h 24.1 mph /  38.8 km/h 38 % 0.0 in /  0 mm
11:52 11.9 °F /  -11.2 °C -2.0 °F /  -18.9 °C 1032.7 in /  34967.2 hPa ENE 8.0 mph /  12.9 km/h 22.5 mph /  36.2 km/h 38 % 0.0 in /  0 mm
12:02 12.1 °F /  -11.1 °C -2.9 °F /  -19.4 °C 1032.7 in /  34967.2 hPa NE 3.2 mph /  5.1 km/h 25.7 mph /  41.4 km/h 35 % 0.0 in /  0 mm
12:12 12.7 °F /  -10.7 °C -2.0 °F /  -18.9 °C 1032.7 in /  34967.2 hPa NE 19.3 mph /  31.1 km/h 22.5 mph /  36.2 km/h 36 % 0.0 in /  0 mm
12:17 12.6 °F /  -10.8 °C -1.4 °F /  -18.6 °C 1032.7 in /  34967.2 hPa NNE 8.0 mph /  12.9 km/h 24.1 mph /  38.8 km/h 38 % 0.0 in /  0 mm
12:22 12.8 °F /  -10.7 °C -1.2 °F /  -18.4 °C 1032.7 in /  34967.2 hPa NE 6.4 mph /  10.3 km/h 27.4 mph /  44.1 km/h 38 % 0.0 in /  0 mm
12:27 12.7 °F /  -10.7 °C -2.8 °F /  -19.3 °C 1032.7 in /  34967.2 hPa ENE 8.0 mph /  12.9 km/h 27.4 mph /  44.1 km/h 34 % 0.0 in /  0 mm
12:32 13.1 °F /  -10.5 °C -2.0 °F /  -18.9 °C 1032.7 in /  34967.2 hPa NNE 14.5 mph /  23.3 km/h 27.4 mph /  44.1 km/h 35 % 0.0 in /  0 mm
12:37 13.2 °F /  -10.4 °C -1.6 °F /  -18.7 °C 1032.7 in /  34967.2 hPa ENE 6.4 mph /  10.3 km/h 27.4 mph /  44.1 km/h 36 % 0.0 in /  0 mm
12:42 13.2 °F /  -10.4 °C -2.3 °F /  -19.1 °C 1032.4 in /  34957.1 hPa NE 9.7 mph /  15.6 km/h 27.4 mph /  44.1 km/h 34 % 0.0 in /  0 mm
12:47 13.3 °F /  -10.4 °C -1.8 °F /  -18.8 °C 1032.4 in /  34957.1 hPa ESE 8.0 mph /  12.9 km/h 24.1 mph /  38.8 km/h 35 % 0.0 in /  0 mm
12:52 13.6 °F /  -10.2 °C -1.6 °F /  -18.7 °C 1032.4 in /  34957.1 hPa ENE 11.3 mph /  18.2 km/h 24.1 mph /  38.8 km/h 35 % 0.0 in /  0 mm
12:57 13.5 °F /  -10.3 °C -1.3 °F /  -18.5 °C 1032.4 in /  34957.1 hPa NNE 8.0 mph /  12.9 km/h 24.1 mph /  38.8 km/h 36 % 0.0 in /  0 mm
13:02 13.7 °F /  -10.2 °C -1.1 °F /  -18.4 °C 1032.4 in /  34957.1 hPa ENE 12.9 mph /  20.8 km/h 24.1 mph /  38.8 km/h 36 % 0.0 in /  0 mm
13:07 13.8 °F /  -10.1 °C -1.4 °F /  -18.6 °C 1032.4 in /  34957.1 hPa NNE 19.3 mph /  31.1 km/h 19.3 mph /  31.1 km/h 35 % 0.0 in /  0 mm
13:12 13.7 °F /  -10.2 °C -1.1 °F /  -18.4 °C 1032.4 in /  34957.1 hPa ENE 6.4 mph /  10.3 km/h 17.7 mph /  28.5 km/h 36 % 0.0 in /  0 mm
13:17 13.6 °F /  -10.2 °C -2.8 °F /  -19.3 °C 1032.4 in /  34957.1 hPa ENE 9.7 mph /  15.6 km/h 24.1 mph /  38.8 km/h 32 % 0.0 in /  0 mm
13:22 13.9 °F /  -10.1 °C -0.9 °F /  -18.3 °C 1032.4 in /  34957.1 hPa ENE 9.7 mph /  15.6 km/h 24.1 mph /  38.8 km/h 36 % 0.0 in /  0 mm
13:27 13.9 °F /  -10.1 °C -1.7 °F /  -18.7 °C 1032.1 in /  34946.9 hPa North 19.3 mph /  31.1 km/h 24.1 mph /  38.8 km/h 34 % 0.0 in /  0 mm
13:32 13.8 °F /  -10.1 °C -2.6 °F /  -19.2 °C 1032.1 in /  34946.9 hPa NE 11.3 mph /  18.2 km/h 24.1 mph /  38.8 km/h 32 % 0.0 in /  0 mm
13:37 13.9 °F /  -10.1 °C -1.3 °F /  -18.5 °C 1032.1 in /  34946.9 hPa NE 11.3 mph /  18.2 km/h 24.1 mph /  38.8 km/h 35 % 0.0 in /  0 mm
13:42 14.0 °F /  -10 °C -1.6 °F /  -18.7 °C 1032.1 in /  34946.9 hPa NNE 12.9 mph /  20.8 km/h 24.1 mph /  38.8 km/h 34 % 0.0 in /  0 mm
13:52 14.2 °F /  -9.9 °C -2.3 °F /  -19.1 °C 1032.1 in /  34946.9 hPa ENE 9.7 mph /  15.6 km/h 22.5 mph /  36.2 km/h 32 % 0.0 in /  0 mm
13:57 13.9 °F /  -10.1 °C -2.5 °F /  -19.2 °C 1032.1 in /  34946.9 hPa NE 9.7 mph /  15.6 km/h 22.5 mph /  36.2 km/h 32 % 0.0 in /  0 mm
14:02 14.1 °F /  -9.9 °C -2.8 °F /  -19.3 °C 1032.1 in /  34946.9 hPa North 9.7 mph /  15.6 km/h 22.5 mph /  36.2 km/h 31 % 0.0 in /  0 mm
14:12 14.3 °F /  -9.8 °C -2.6 °F /  -19.2 °C 1031.7 in /  34933.4 hPa ENE 6.4 mph /  10.3 km/h 22.5 mph /  36.2 km/h 31 % 0.0 in /  0 mm
14:17 14.3 °F /  -9.8 °C -2.6 °F /  -19.2 °C 1031.7 in /  34933.4 hPa NE 9.7 mph /  15.6 km/h 22.5 mph /  36.2 km/h 31 % 0.0 in /  0 mm
14:22 14.5 °F /  -9.7 °C -2.0 °F /  -18.9 °C 1031.7 in /  34933.4 hPa NW 1.6 mph /  2.6 km/h 22.5 mph /  36.2 km/h 32 % 0.0 in /  0 mm
14:27 14.7 °F /  -9.6 °C -1.0 °F /  -18.3 °C 1031.7 in /  34933.4 hPa ENE 8.0 mph /  12.9 km/h 27.4 mph /  44.1 km/h 34 % 0.0 in /  0 mm
14:32 14.8 °F /  -9.6 °C -2.2 °F /  -19 °C 1031.7 in /  34933.4 hPa NE 14.5 mph /  23.3 km/h 27.4 mph /  44.1 km/h 31 % 0.0 in /  0 mm
14:42 15.1 °F /  -9.4 °C -1.5 °F /  -18.6 °C 1031.7 in /  34933.4 hPa ENE 12.9 mph /  20.8 km/h 20.9 mph /  33.6 km/h 32 % 0.0 in /  0 mm
14:47 15.2 °F /  -9.3 °C -1.8 °F /  -18.8 °C 1031.4 in /  34923.2 hPa NNE 9.7 mph /  15.6 km/h 19.3 mph /  31.1 km/h 31 % 0.0 in /  0 mm
14:52 14.9 °F /  -9.5 °C -3.0 °F /  -19.4 °C 1031.4 in /  34923.2 hPa North 8.0 mph /  12.9 km/h 19.3 mph /  31.1 km/h 29 % 0.0 in /  0 mm
14:57 15.2 °F /  -9.3 °C -1.8 °F /  -18.8 °C 1031.4 in /  34923.2 hPa East 12.9 mph /  20.8 km/h 17.7 mph /  28.5 km/h 31 % 0.0 in /  0 mm
15:02 15.2 °F /  -9.3 °C -3.2 °F /  -19.6 °C 1031.4 in /  34923.2 hPa SE 3.2 mph /  5.1 km/h 17.7 mph /  28.5 km/h 28 % 0.0 in /  0 mm
15:07 15.3 °F /  -9.3 °C -1.7 °F /  -18.7 °C 1031.4 in /  34923.2 hPa ENE 9.7 mph /  15.6 km/h 16.1 mph /  25.9 km/h 31 % 0.0 in /  0 mm
15:12 15.3 °F /  -9.3 °C -2.6 °F /  -19.2 °C 1031.4 in /  34923.2 hPa ENE 8.0 mph /  12.9 km/h 16.1 mph /  25.9 km/h 29 % 0.0 in /  0 mm
15:17 15.2 °F /  -9.3 °C -1.4 °F /  -18.6 °C 1031.0 in /  34909.7 hPa NNE 12.9 mph /  20.8 km/h 19.3 mph /  31.1 km/h 32 % 0.0 in /  0 mm
15:22 15.6 °F /  -9.1 °C -1.9 °F /  -18.8 °C 1031.0 in /  34909.7 hPa East 12.9 mph /  20.8 km/h 19.3 mph /  31.1 km/h 30 % 0.0 in /  0 mm
15:27 15.5 °F /  -9.2 °C -2.5 °F /  -19.2 °C 1031.0 in /  34909.7 hPa ENE 6.4 mph /  10.3 km/h 22.5 mph /  36.2 km/h 29 % 0.0 in /  0 mm
15:32 15.6 °F /  -9.1 °C -1.9 °F /  -18.8 °C 1031.0 in /  34909.7 hPa NNE 6.4 mph /  10.3 km/h 22.5 mph /  36.2 km/h 30 % 0.0 in /  0 mm
15:37 15.7 °F /  -9.1 °C -1.0 °F /  -18.3 °C 1031.0 in /  34909.7 hPa ENE 12.9 mph /  20.8 km/h 17.7 mph /  28.5 km/h 32 % 0.0 in /  0 mm
15:42 15.8 °F /  -9 °C -0.9 °F /  -18.3 °C 1031.0 in /  34909.7 hPa ENE 6.4 mph /  10.3 km/h 17.7 mph /  28.5 km/h 32 % 0.0 in /  0 mm
15:47 15.8 °F /  -9 °C -1.7 °F /  -18.7 °C 1030.7 in /  34899.5 hPa SE 1.6 mph /  2.6 km/h 19.3 mph /  31.1 km/h 30 % 0.0 in /  0 mm
15:52 15.9 °F /  -8.9 °C -1.2 °F /  -18.4 °C 1030.7 in /  34899.5 hPa East 3.2 mph /  5.1 km/h 19.3 mph /  31.1 km/h 31 % 0.0 in /  0 mm
15:57 15.9 °F /  -8.9 °C -1.7 °F /  -18.7 °C 1030.7 in /  34899.5 hPa East 6.4 mph /  10.3 km/h 19.3 mph /  31.1 km/h 30 % 0.0 in /  0 mm
16:02 15.9 °F /  -8.9 °C -1.7 °F /  -18.7 °C 1030.7 in /  34899.5 hPa NE 6.4 mph /  10.3 km/h 19.3 mph /  31.1 km/h 30 % 0.0 in /  0 mm
16:12 16.0 °F /  -8.9 °C -1.6 °F /  -18.7 °C 1030.4 in /  34889.3 hPa ENE 8.0 mph /  12.9 km/h 16.1 mph /  25.9 km/h 30 % 0.0 in /  0 mm
16:17 16.2 °F /  -8.8 °C -1.4 °F /  -18.6 °C 1030.4 in /  34889.3 hPa NNE 11.3 mph /  18.2 km/h 17.7 mph /  28.5 km/h 30 % 0.0 in /  0 mm
16:22 15.9 °F /  -8.9 °C -2.6 °F /  -19.2 °C 1030.4 in /  34889.3 hPa Calm   17.7 mph /  28.5 km/h 28 % 0.0 in /  0 mm
16:27 15.9 °F /  -8.9 °C -1.2 °F /  -18.4 °C 1030.4 in /  34889.3 hPa NNE 14.5 mph /  23.3 km/h 20.9 mph /  33.6 km/h 31 % 0.0 in /  0 mm
16:32 16.1 °F /  -8.8 °C -1.0 °F /  -18.3 °C 1030.4 in /  34889.3 hPa Calm   20.9 mph /  33.6 km/h 31 % 0.0 in /  0 mm
16:37 16.3 °F /  -8.7 °C -1.8 °F /  -18.8 °C 1030.4 in /  34889.3 hPa Calm   20.9 mph /  33.6 km/h 29 % 0.0 in /  0 mm
16:42 16.3 °F /  -8.7 °C -1.8 °F /  -18.8 °C 1030.0 in /  34875.8 hPa NNE 8.0 mph /  12.9 km/h 20.9 mph /  33.6 km/h 29 % 0.0 in /  0 mm
16:47 16.1 °F /  -8.8 °C -1.5 °F /  -18.6 °C 1030.0 in /  34875.8 hPa NE 8.0 mph /  12.9 km/h 20.9 mph /  33.6 km/h 30 % 0.0 in /  0 mm
16:52 16.4 °F /  -8.7 °C -0.3 °F /  -17.9 °C 1030.0 in /  34875.8 hPa NE 3.2 mph /  5.1 km/h 20.9 mph /  33.6 km/h 32 % 0.0 in /  0 mm
17:02 16.5 °F /  -8.6 °C -1.6 °F /  -18.7 °C 1030.0 in /  34875.8 hPa NNE 1.6 mph /  2.6 km/h 20.9 mph /  33.6 km/h 29 % 0.0 in /  0 mm
17:12 16.3 °F /  -8.7 °C -1.8 °F /  -18.8 °C 1030.0 in /  34875.8 hPa ENE 8.0 mph /  12.9 km/h 14.5 mph /  23.3 km/h 29 % 0.0 in /  0 mm
17:17 16.2 °F /  -8.8 °C -1.4 °F /  -18.6 °C 1030.0 in /  34875.8 hPa North 3.2 mph /  5.1 km/h 17.7 mph /  28.5 km/h 30 % 0.0 in /  0 mm
17:22 16.2 °F /  -8.8 °C -1.4 °F /  -18.6 °C 1030.0 in /  34875.8 hPa North 4.8 mph /  7.7 km/h 17.7 mph /  28.5 km/h 30 % 0.0 in /  0 mm
17:32 16.4 °F /  -8.7 °C -1.2 °F /  -18.4 °C 1029.7 in /  34865.6 hPa ENE 4.8 mph /  7.7 km/h 17.7 mph /  28.5 km/h 30 % 0.0 in /  0 mm
17:37 16.4 °F /  -8.7 °C -1.2 °F /  -18.4 °C 1029.7 in /  34865.6 hPa East 9.7 mph /  15.6 km/h 14.5 mph /  23.3 km/h 30 % 0.0 in /  0 mm
17:42 16.6 °F /  -8.6 °C -0.6 °F /  -18.1 °C 1029.7 in /  34865.6 hPa ENE 9.7 mph /  15.6 km/h 14.5 mph /  23.3 km/h 31 % 0.0 in /  0 mm
17:52 16.3 °F /  -8.7 °C -1.3 °F /  -18.5 °C 1029.7 in /  34865.6 hPa ENE 4.8 mph /  7.7 km/h 14.5 mph /  23.3 km/h 30 % 0.0 in /  0 mm
18:02 16.4 °F /  -8.7 °C -1.2 °F /  -18.4 °C 1029.7 in /  34865.6 hPa NE 8.0 mph /  12.9 km/h 17.7 mph /  28.5 km/h 30 % 0.0 in /  0 mm
18:07 16.6 °F /  -8.6 °C -0.2 °F /  -17.9 °C 1029.7 in /  34865.6 hPa ENE 3.2 mph /  5.1 km/h 17.7 mph /  28.5 km/h 32 % 0.0 in /  0 mm
18:12 16.4 °F /  -8.7 °C -1.7 °F /  -18.7 °C 1029.7 in /  34865.6 hPa Calm   17.7 mph /  28.5 km/h 29 % 0.0 in /  0 mm
18:17 16.4 °F /  -8.7 °C -1.2 °F /  -18.4 °C 1029.7 in /  34865.6 hPa NE 12.9 mph /  20.8 km/h 17.7 mph /  28.5 km/h 30 % 0.0 in /  0 mm
18:22 16.4 °F /  -8.7 °C -1.2 °F /  -18.4 °C 1029.7 in /  34865.6 hPa North 4.8 mph /  7.7 km/h 17.7 mph /  28.5 km/h 30 % 0.0 in /  0 mm
18:32 16.4 °F /  -8.7 °C -1.2 °F /  -18.4 °C 1029.3 in /  34852.1 hPa ENE 9.7 mph /  15.6 km/h 16.1 mph /  25.9 km/h 30 % 0.0 in /  0 mm
18:37 16.2 °F /  -8.8 °C -1.0 °F /  -18.3 °C 1029.3 in /  34852.1 hPa NE 8.0 mph /  12.9 km/h 16.1 mph /  25.9 km/h 31 % 0.0 in /  0 mm
18:42 16.2 °F /  -8.8 °C -0.5 °F /  -18.1 °C 1029.3 in /  34852.1 hPa NNW 3.2 mph /  5.1 km/h 16.1 mph /  25.9 km/h 32 % 0.0 in /  0 mm
18:52 16.4 °F /  -8.7 °C -0.3 °F /  -17.9 °C 1029.3 in /  34852.1 hPa NE 6.4 mph /  10.3 km/h 14.5 mph /  23.3 km/h 32 % 0.0 in /  0 mm
18:57 16.4 °F /  -8.7 °C -0.8 °F /  -18.2 °C 1029.3 in /  34852.1 hPa NE 4.8 mph /  7.7 km/h 11.3 mph /  18.2 km/h 31 % 0.0 in /  0 mm
19:02 16.2 °F /  -8.8 °C -1.0 °F /  -18.3 °C 1029.3 in /  34852.1 hPa NNE 3.2 mph /  5.1 km/h 11.3 mph /  18.2 km/h 31 % 0.0 in /  0 mm
19:07 16.2 °F /  -8.8 °C -1.0 °F /  -18.3 °C 1029.3 in /  34852.1 hPa NE 9.7 mph /  15.6 km/h 12.9 mph /  20.8 km/h 31 % 0.0 in /  0 mm
19:12 16.2 °F /  -8.8 °C -1.4 °F /  -18.6 °C 1029.3 in /  34852.1 hPa NE 3.2 mph /  5.1 km/h 12.9 mph /  20.8 km/h 30 % 0.0 in /  0 mm
19:17 16.1 °F /  -8.8 °C -1.5 °F /  -18.6 °C 1029.3 in /  34852.1 hPa NNE 4.8 mph /  7.7 km/h 12.9 mph /  20.8 km/h 30 % 0.0 in /  0 mm
19:22 16.1 °F /  -8.8 °C -1.5 °F /  -18.6 °C 1029.3 in /  34852.1 hPa NNE 6.4 mph /  10.3 km/h 12.9 mph /  20.8 km/h 30 % 0.0 in /  0 mm
19:27 15.9 °F /  -8.9 °C -1.2 °F /  -18.4 °C 1029.3 in /  34852.1 hPa NE 9.7 mph /  15.6 km/h 11.3 mph /  18.2 km/h 31 % 0.0 in /  0 mm
19:32 15.8 °F /  -9 °C -1.3 °F /  -18.5 °C 1029.3 in /  34852.1 hPa NE 6.4 mph /  10.3 km/h 11.3 mph /  18.2 km/h 31 % 0.0 in /  0 mm
19:42 15.8 °F /  -9 °C -0.9 °F /  -18.3 °C 1029.3 in /  34852.1 hPa NE 1.6 mph /  2.6 km/h 12.9 mph /  20.8 km/h 32 % 0.0 in /  0 mm
19:52 15.7 °F /  -9.1 °C -1.0 °F /  -18.3 °C 1029.3 in /  34852.1 hPa NE 4.8 mph /  7.7 km/h 9.7 mph /  15.6 km/h 32 % 0.0 in /  0 mm
19:57 15.5 °F /  -9.2 °C -0.7 °F /  -18.2 °C 1029.0 in /  34841.9 hPa NNE 3.2 mph /  5.1 km/h 9.7 mph /  15.6 km/h 33 % 0.0 in /  0 mm
20:02 15.4 °F /  -9.2 °C -1.2 °F /  -18.4 °C 1029.3 in /  34852.1 hPa NE 3.2 mph /  5.1 km/h 9.7 mph /  15.6 km/h 32 % 0.0 in /  0 mm
20:07 15.3 °F /  -9.3 °C -0.9 °F /  -18.3 °C 1029.0 in /  34841.9 hPa NNE 4.8 mph /  7.7 km/h 9.7 mph /  15.6 km/h 33 % 0.0 in /  0 mm
20:12 15.3 °F /  -9.3 °C -0.9 °F /  -18.3 °C 1029.0 in /  34841.9 hPa NE 3.2 mph /  5.1 km/h 9.7 mph /  15.6 km/h 33 % 0.0 in /  0 mm
20:17 15.2 °F /  -9.3 °C -1.0 °F /  -18.3 °C 1029.0 in /  34841.9 hPa NNE 4.8 mph /  7.7 km/h 6.4 mph /  10.3 km/h 33 % 0.0 in /  0 mm
20:22 15.1 °F /  -9.4 °C -0.7 °F /  -18.2 °C 1029.0 in /  34841.9 hPa NE 4.8 mph /  7.7 km/h 6.4 mph /  10.3 km/h 34 % 0.0 in /  0 mm
20:32 14.4 °F /  -9.8 °C -0.5 °F /  -18.1 °C 1029.0 in /  34841.9 hPa NE 1.6 mph /  2.6 km/h 6.4 mph /  10.3 km/h 36 % 0.0 in /  0 mm
20:37 14.1 °F /  -9.9 °C -0.8 °F /  -18.2 °C 1029.0 in /  34841.9 hPa NNE 4.8 mph /  7.7 km/h 6.4 mph /  10.3 km/h 36 % 0.0 in /  0 mm
20:42 13.9 °F /  -10.1 °C -1.3 °F /  -18.5 °C 1029.0 in /  34841.9 hPa NE 4.8 mph /  7.7 km/h 6.4 mph /  10.3 km/h 35 % 0.0 in /  0 mm
20:52 13.4 °F /  -10.3 °C -1.0 °F /  -18.3 °C 1029.0 in /  34841.9 hPa NNE 4.8 mph /  7.7 km/h 6.4 mph /  10.3 km/h 37 % 0.0 in /  0 mm
20:57 13.1 °F /  -10.5 °C -0.5 °F /  -18.1 °C 1029.0 in /  34841.9 hPa Calm   6.4 mph /  10.3 km/h 39 % 0.0 in /  0 mm
21:02 12.8 °F /  -10.7 °C -0.5 °F /  -18.1 °C 1029.0 in /  34841.9 hPa Calm   6.4 mph /  10.3 km/h 40 % 0.0 in /  0 mm
21:07 12.6 °F /  -10.8 °C -0.6 °F /  -18.1 °C 1029.0 in /  34841.9 hPa Calm   6.4 mph /  10.3 km/h 40 % 0.0 in /  0 mm
21:17 12.2 °F /  -11 °C -0.7 °F /  -18.2 °C 1029.0 in /  34841.9 hPa NNW 1.6 mph /  2.6 km/h 3.2 mph /  5.1 km/h 41 % 0.0 in /  0 mm
21:22 11.9 °F /  -11.2 °C -0.6 °F /  -18.1 °C 1029.3 in /  34852.1 hPa NNW 1.6 mph /  2.6 km/h 3.2 mph /  5.1 km/h 42 % 0.0 in /  0 mm
21:27 11.6 °F /  -11.3 °C -0.9 °F /  -18.3 °C 1029.0 in /  34841.9 hPa NNW 1.6 mph /  2.6 km/h 6.4 mph /  10.3 km/h 42 % 0.0 in /  0 mm
21:32 11.5 °F /  -11.4 °C -0.7 °F /  -18.2 °C 1029.0 in /  34841.9 hPa Calm   6.4 mph /  10.3 km/h 43 % 0.0 in /  0 mm
21:37 11.3 °F /  -11.5 °C -0.5 °F /  -18.1 °C 1029.0 in /  34841.9 hPa NNW 1.6 mph /  2.6 km/h 6.4 mph /  10.3 km/h 44 % 0.0 in /  0 mm
21:42 11.2 °F /  -11.6 °C -0.6 °F /  -18.1 °C 1029.3 in /  34852.1 hPa NNW 1.6 mph /  2.6 km/h 6.4 mph /  10.3 km/h 44 % 0.0 in /  0 mm
21:52 10.9 °F /  -11.7 °C -0.9 °F /  -18.3 °C 1029.3 in /  34852.1 hPa NNW 1.6 mph /  2.6 km/h 4.8 mph /  7.7 km/h 44 % 0.0 in /  0 mm
21:57 10.8 °F /  -11.8 °C -0.7 °F /  -18.2 °C 1029.3 in /  34852.1 hPa Calm   3.2 mph /  5.1 km/h 45 % 0.0 in /  0 mm
22:02 10.7 °F /  -11.8 °C -0.8 °F /  -18.2 °C 1029.3 in /  34852.1 hPa NNW 1.6 mph /  2.6 km/h 3.2 mph /  5.1 km/h 45 % 0.0 in /  0 mm
22:07 10.6 °F /  -11.9 °C -0.5 °F /  -18.1 °C 1029.3 in /  34852.1 hPa NNW 1.6 mph /  2.6 km/h 3.2 mph /  5.1 km/h 46 % 0.0 in /  0 mm
22:12 10.6 °F /  -11.9 °C -0.5 °F /  -18.1 °C 1029.3 in /  34852.1 hPa NNW 3.2 mph /  5.1 km/h 3.2 mph /  5.1 km/h 46 % 0.0 in /  0 mm
22:17 10.6 °F /  -11.9 °C -0.2 °F /  -17.9 °C 1029.3 in /  34852.1 hPa North 3.2 mph /  5.1 km/h 3.2 mph /  5.1 km/h 47 % 0.0 in /  0 mm
22:22 10.3 °F /  -12.1 °C -0.2 °F /  -17.9 °C 1029.3 in /  34852.1 hPa NNW 1.6 mph /  2.6 km/h 3.2 mph /  5.1 km/h 48 % 0.0 in /  0 mm
22:32 10.1 °F /  -12.2 °C -0.1 °F /  -17.8 °C 1029.3 in /  34852.1 hPa NNW 1.6 mph /  2.6 km/h 6.4 mph /  10.3 km/h 49 % 0.0 in /  0 mm
22:37 10.2 °F /  -12.1 °C 0.0 °F /  -17.8 °C 1029.3 in /  34852.1 hPa NNW 3.2 mph /  5.1 km/h 4.8 mph /  7.7 km/h 49 % 0.0 in /  0 mm
22:42 10.2 °F /  -12.1 °C 0.0 °F /  -17.8 °C 1029.3 in /  34852.1 hPa NNW 3.2 mph /  5.1 km/h 4.8 mph /  7.7 km/h 49 % 0.0 in /  0 mm
22:47 10.0 °F /  -12.2 °C 0.1 °F /  -17.7 °C 1029.3 in /  34852.1 hPa NNW 1.6 mph /  2.6 km/h 4.8 mph /  7.7 km/h 50 % 0.0 in /  0 mm
22:52 9.9 °F /  -12.3 °C 0.0 °F /  -17.8 °C 1029.3 in /  34852.1 hPa NNW 1.6 mph /  2.6 km/h 4.8 mph /  7.7 km/h 50 % 0.0 in /  0 mm
22:57 9.8 °F /  -12.3 °C -0.1 °F /  -17.8 °C 1029.3 in /  34852.1 hPa NNW 1.6 mph /  2.6 km/h 4.8 mph /  7.7 km/h 50 % 0.0 in /  0 mm
23:02 9.8 °F /  -12.3 °C 0.1 °F /  -17.7 °C 1029.3 in /  34852.1 hPa Calm   4.8 mph /  7.7 km/h 51 % 0.0 in /  0 mm
23:12 9.6 °F /  -12.4 °C 0.2 °F /  -17.7 °C 1029.3 in /  34852.1 hPa NW 3.2 mph /  5.1 km/h 4.8 mph /  7.7 km/h 52 % 0.0 in /  0 mm
23:17 9.6 °F /  -12.4 °C 0.2 °F /  -17.7 °C 1029.3 in /  34852.1 hPa NNE 3.2 mph /  5.1 km/h 4.8 mph /  7.7 km/h 52 % 0.0 in /  0 mm
23:22 9.6 °F /  -12.4 °C 0.2 °F /  -17.7 °C 1029.0 in /  34841.9 hPa North 1.6 mph /  2.6 km/h 4.8 mph /  7.7 km/h 52 % 0.0 in /  0 mm
23:27 9.7 °F /  -12.4 °C 0.0 °F /  -17.8 °C 1029.3 in /  34852.1 hPa North 4.8 mph /  7.7 km/h 6.4 mph /  10.3 km/h 51 % 0.0 in /  0 mm
23:32 9.7 °F /  -12.4 °C 0.0 °F /  -17.8 °C 1029.0 in /  34841.9 hPa North 3.2 mph /  5.1 km/h 6.4 mph /  10.3 km/h 51 % 0.0 in /  0 mm
23:42 9.5 °F /  -12.5 °C 0.1 °F /  -17.7 °C 1029.3 in /  34852.1 hPa NE 4.8 mph /  7.7 km/h 6.4 mph /  10.3 km/h 52 % 0.0 in /  0 mm
23:47 9.4 °F /  -12.6 °C 0.0 °F /  -17.8 °C 1029.3 in /  34852.1 hPa NE 6.4 mph /  10.3 km/h 8.0 mph /  12.9 km/h 52 % 0.0 in /  0 mm
23:52 9.3 °F /  -12.6 °C -0.1 °F /  -17.8 °C 1029.3 in /  34852.1 hPa NNW 4.8 mph /  7.7 km/h 8.0 mph /  12.9 km/h 52 % 0.0 in /  0 mm
23:57 9.3 °F /  -12.6 °C -0.1 °F /  -17.8 °C 1029.3 in /  34852.1 hPa NE 6.4 mph /  10.3 km/h 8.0 mph /  12.9 km/h 52 % 0.0 in /  0 mm
Meteo18
Compliments of Weather Underground - 4 mb

Script developed by  Jim McMurry - jmcmurry@mwt.net Adapted for the template by  Wim van der Kuil - Leuven-Template.eu

You find our weather info also at:

European Weather Network

Weather Underground

Equipment we use:

Weather-station
Davis Vue

Weather-program
Meteobridge

Weather-server
Raspberry PI 2 B+

Provider
1 and 1

Davis Vue

Meteobridge

Raspberry PI 2 B+

1 and 1